Huvudsida
METAR-TAF:

METAR-TAF

Flygplatser :

Vasa flygplats

Vasa, Finland

latitud: 63-03N, longitud: 021-46E, höjd: 4 m

Aktuellt väderrapport

Denna rapport gjordes för 18 minuter sedan, klockan 18:20 UTC
Vind 4 kt från syd
Temperatur -3°C
Fuktighet 93%
Tryck 1034 hPa
Sikt 10 km eller mer

METAR: EFVA 131820Z AUTO 19004KT 9999 OVC018/// M03/M04 Q1034

Tid: 20:38 (18:38 UTC)

Väderprognos

Denna rapport gjordes för 1 timme och 14 minuter sedan, klockan 17:24 UTC
Prognos gäller från 13 kl. 18 UTC till 14 kl. 18 UTC
Vind 5 kt från syd
Sikt 10 km eller mer
Mulet på en höjd av 1700 ft
Temporärt
från 14 kl. 04 UTC till 14 kl. 18 UTC
Brutna moln på en höjd av 1200 ft

TAF: EFVA 131724Z 1318/1418 18005KT 9999 OVC017 TEMPO 1404/1418 BKN012

Aktuella väderrapporter och prognoser från 4000 flygplatser (METAR- och TAF-rapporter).

De tillgängliga stationerna syns som gula och röda prickar på kartan.

För musen över prickarna för att se namnen på stationerna.

Klicka sedan för att få väderrapporter och prognoser.

För att ändra kartan: Klicka på de gröna knapparna med ett svart kors på för att zooma in; den gröna knappen med ett streck på för att zooma ut; eller på de gröna pilarna för angränsande kartor.


METAR-TAF: